Time;durP1;ratioP1;P1;durP2;ratioP2;P2;SDS_P1;SDS_P2;PMS_P1;PMS_P2;Temp;Humidity;BMP_temperature;BMP_pressure;BME280_temperature;BME280_humidity;BME280_pressure;Samples;Min_cycle;Max_cycle;Signal;HPM_P1;HPM_P2
2021/06/28 00:00:25;;;;;;;5.57;5.07;;;19.60;99.90;;;;;;4970058;28;20457;-86
2021/06/28 00:02:53;;;;;;;5.60;4.50;;;19.50;99.90;;;;;;4954921;28;20205;-87
2021/06/28 00:05:19;;;;;;;5.20;4.80;;;19.50;99.90;;;;;;4952401;28;20838;-86
2021/06/28 00:07:48;;;;;;;5.13;4.73;;;19.50;99.90;;;;;;4950607;28;20442;-86
2021/06/28 00:10:17;;;;;;;5.27;4.87;;;19.50;99.90;;;;;;4970770;28;20446;-87
2021/06/28 00:12:44;;;;;;;5.90;5.50;;;19.50;99.90;;;;;;4955448;28;20826;-86
2021/06/28 00:15:13;;;;;;;5.57;5.17;;;19.50;99.90;;;;;;4951407;28;20890;-87
2021/06/28 00:17:40;;;;;;;5.30;4.90;;;19.50;99.90;;;;;;4971624;28;20449;-86
2021/06/28 00:20:07;;;;;;;5.10;4.80;;;19.50;99.90;;;;;;4971709;28;20566;-87
2021/06/28 00:22:33;;;;;;;5.53;5.00;;;19.40;99.90;;;;;;4969542;28;20452;-86
2021/06/28 00:24:59;;;;;;;5.70;5.30;;;19.40;99.90;;;;;;4955428;28;20454;-87
2021/06/28 00:27:25;;;;;;;5.03;4.63;;;19.40;99.90;;;;;;4955988;28;20442;-86
2021/06/28 00:29:51;;;;;;;5.10;4.70;;;19.30;99.90;;;;;;4973449;28;20592;-86
2021/06/28 00:32:18;;;;;;;5.50;5.10;;;19.20;99.90;;;;;;4956874;28;20186;-86
2021/06/28 00:34:44;;;;;;;4.87;4.43;;;19.20;99.90;;;;;;4959207;28;20515;-85
2021/06/28 00:37:09;;;;;;;5.30;4.80;;;19.20;99.90;;;;;;4955240;28;20449;-86
2021/06/28 00:39:35;;;;;;;7.40;6.23;;;19.20;99.90;;;;;;4959858;28;20202;-85
2021/06/28 00:42:02;;;;;;;5.10;4.80;;;19.10;99.90;;;;;;4958152;28;20214;-86
2021/06/28 00:44:27;;;;;;;5.13;4.73;;;19.10;99.90;;;;;;4959893;28;20265;-86
2021/06/28 00:46:53;;;;;;;5.03;4.63;;;19.10;99.90;;;;;;4972104;28;20532;-86
2021/06/28 00:49:19;;;;;;;4.67;4.37;;;19.10;99.90;;;;;;4958608;28;20249;-87
2021/06/28 00:51:45;;;;;;;5.13;4.83;;;19.10;99.90;;;;;;4963954;28;20198;-86
2021/06/28 00:54:11;;;;;;;5.17;4.67;;;19.10;99.90;;;;;;4960267;28;20214;-86
2021/06/28 00:56:37;;;;;;;4.60;4.23;;;19.10;99.90;;;;;;4957364;28;20452;-87
2021/06/28 00:59:04;;;;;;;5.37;4.53;;;19.10;99.90;;;;;;4960953;28;20489;-86
2021/06/28 01:01:30;;;;;;;5.43;5.00;;;19.10;99.90;;;;;;4959722;28;20649;-86
2021/06/28 01:03:56;;;;;;;5.13;4.70;;;19.00;99.90;;;;;;4956937;28;20515;-86
2021/06/28 01:06:21;;;;;;;4.90;4.60;;;19.00;99.90;;;;;;4956198;28;20551;-87
2021/06/28 01:08:47;;;;;;;5.03;4.53;;;19.00;99.90;;;;;;4957505;28;20469;-86
2021/06/28 01:11:13;;;;;;;6.37;4.60;;;19.10;99.90;;;;;;4958907;28;20676;-86
2021/06/28 01:13:40;;;;;;;4.33;3.93;;;19.10;99.90;;;;;;4979550;28;20218;-87
2021/06/28 01:16:07;;;;;;;4.70;3.90;;;19.00;99.90;;;;;;4962109;28;22218;-86
2021/06/28 01:18:33;;;;;;;4.17;3.87;;;19.10;99.90;;;;;;4956206;28;20453;-87
2021/06/28 01:21:01;;;;;;;5.50;4.63;;;19.10;99.90;;;;;;4958528;28;20452;-87
2021/06/28 01:23:32;;;;;;;4.70;4.30;;;19.10;99.90;;;;;;4958517;28;20441;-88
2021/06/28 01:26:04;;;;;;;5.53;4.77;;;19.10;99.90;;;;;;4958103;28;20515;-86
2021/06/28 01:28:30;;;;;;;4.27;3.87;;;19.10;99.90;;;;;;4974464;28;20445;-87
2021/06/28 01:30:58;;;;;;;4.67;4.37;;;19.00;99.90;;;;;;4954923;28;20443;-87
2021/06/28 01:33:26;;;;;;;4.20;3.90;;;19.10;99.90;;;;;;4957700;28;21064;-87
2021/06/28 01:35:54;;;;;;;6.57;4.90;;;19.10;99.90;;;;;;4961027;28;20457;-87
2021/06/28 01:38:20;;;;;;;4.63;4.30;;;19.10;99.90;;;;;;4957654;28;20446;-87
2021/06/28 01:40:46;;;;;;;4.67;4.30;;;19.10;99.90;;;;;;4958265;28;20886;-87
2021/06/28 01:43:12;;;;;;;4.97;4.60;;;19.00;99.90;;;;;;4952996;28;20636;-87
2021/06/28 01:45:38;;;;;;;4.10;3.83;;;19.00;99.90;;;;;;4957282;28;20456;-88
2021/06/28 01:48:05;;;;;;;4.40;3.93;;;19.00;99.90;;;;;;4968984;28;20188;-87
2021/06/28 01:50:32;;;;;;;6.20;4.23;;;19.10;99.90;;;;;;4959507;28;20454;-88
2021/06/28 01:52:59;;;;;;;4.20;3.80;;;19.00;99.90;;;;;;4969736;28;20454;-87
2021/06/28 01:55:25;;;;;;;4.23;3.93;;;19.10;99.90;;;;;;4956208;28;20556;-86
2021/06/28 01:57:54;;;;;;;4.57;4.17;;;19.10;99.90;;;;;;4971122;28;20437;-87
2021/06/28 02:00:29;;;;;;;4.90;4.20;;;19.10;99.90;;;;;;4964511;28;20453;-87
2021/06/28 02:03:03;;;;;;;4.17;3.87;;;19.20;99.90;;;;;;4959821;28;20441;-87
2021/06/28 02:05:33;;;;;;;4.07;3.77;;;19.20;99.90;;;;;;4958729;28;20590;-88
2021/06/28 02:08:02;;;;;;;4.23;3.93;;;19.30;99.90;;;;;;4972718;28;20430;-87
2021/06/28 02:10:28;;;;;;;4.60;4.30;;;19.20;99.90;;;;;;4974026;28;20476;-87
2021/06/28 02:12:54;;;;;;;5.07;4.67;;;19.30;99.90;;;;;;4955123;28;20469;-87
2021/06/28 02:15:25;;;;;;;4.37;3.97;;;19.20;99.90;;;;;;4948241;28;20277;-87
2021/06/28 02:17:51;;;;;;;3.93;3.63;;;19.30;99.90;;;;;;4955339;28;20450;-87
2021/06/28 02:20:19;;;;;;;4.33;4.00;;;19.30;99.90;;;;;;4955423;28;20465;-86
2021/06/28 02:22:46;;;;;;;4.80;4.50;;;19.30;99.90;;;;;;4971606;28;20430;-87
2021/06/28 02:25:12;;;;;;;4.77;4.37;;;19.30;99.90;;;;;;4954443;28;20472;-87
2021/06/28 02:27:41;;;;;;;4.77;4.37;;;19.30;99.90;;;;;;4954822;28;20446;-87
2021/06/28 02:30:10;;;;;;;5.03;4.63;;;19.20;99.90;;;;;;4954685;28;20604;-85
2021/06/28 02:32:36;;;;;;;5.03;4.73;;;19.10;99.90;;;;;;4952813;28;20453;-85
2021/06/28 02:35:05;;;;;;;4.40;4.10;;;19.20;99.90;;;;;;4953585;28;21469;-86
2021/06/28 02:37:31;;;;;;;4.90;4.50;;;19.20;99.90;;;;;;4966873;28;20245;-86
2021/06/28 02:40:05;;;;;;;7.17;4.60;;;19.10;99.90;;;;;;4956111;28;20865;-86
2021/06/28 02:42:31;;;;;;;4.90;4.50;;;19.10;99.90;;;;;;4913915;28;1155895;-86
2021/06/28 02:44:56;;;;;;;4.13;3.83;;;19.10;99.90;;;;;;4957125;28;20529;-86
2021/06/28 02:47:22;;;;;;;6.00;4.83;;;19.00;99.90;;;;;;4967937;28;20618;-86
2021/06/28 02:49:48;;;;;;;4.80;4.40;;;19.00;99.90;;;;;;4956843;28;20187;-86
2021/06/28 02:52:13;;;;;;;4.93;4.63;;;18.90;99.90;;;;;;4954155;28;20198;-86
2021/06/28 02:54:39;;;;;;;5.27;4.87;;;18.90;99.90;;;;;;4958173;28;20261;-87
2021/06/28 02:57:05;;;;;;;5.30;4.80;;;18.90;99.90;;;;;;4954983;28;20194;-86
2021/06/28 02:59:30;;;;;;;4.70;4.40;;;19.00;99.90;;;;;;4971079;28;20206;-86
2021/06/28 03:01:56;;;;;;;4.47;4.10;;;18.90;99.90;;;;;;4971230;28;20193;-86
2021/06/28 03:04:22;;;;;;;5.37;4.97;;;18.90;99.90;;;;;;4958191;28;21176;-87
2021/06/28 03:06:48;;;;;;;5.33;4.83;;;18.90;99.90;;;;;;4955589;28;20496;-86
2021/06/28 03:09:13;;;;;;;4.50;4.20;;;18.90;99.90;;;;;;4969958;28;20639;-85
2021/06/28 03:11:39;;;;;;;5.20;4.70;;;19.00;99.90;;;;;;4955266;28;20582;-85
2021/06/28 03:14:06;;;;;;;4.43;4.13;;;18.90;99.90;;;;;;4955061;28;20226;-86
2021/06/28 03:16:31;;;;;;;5.20;4.80;;;18.80;99.90;;;;;;4953713;28;20198;-86
2021/06/28 03:18:57;;;;;;;5.30;4.90;;;18.80;99.90;;;;;;4956974;28;20473;-86
2021/06/28 03:21:23;;;;;;;5.17;4.77;;;18.70;99.90;;;;;;4971852;28;20198;-86
2021/06/28 03:23:49;;;;;;;5.10;4.70;;;18.70;99.90;;;;;;4972050;28;21532;-86
2021/06/28 03:26:18;;;;;;;6.60;4.93;;;18.80;99.90;;;;;;4954272;28;20971;-86
2021/06/28 03:28:43;;;;;;;4.63;4.33;;;18.80;99.90;;;;;;4959059;28;20210;-87
2021/06/28 03:31:11;;;;;;;5.10;4.80;;;18.70;99.90;;;;;;4952398;28;20538;-86
2021/06/28 03:33:39;;;;;;;4.83;4.43;;;18.70;99.90;;;;;;4968683;28;20293;-87
2021/06/28 03:36:08;;;;;;;4.27;4.07;;;18.70;99.90;;;;;;4959420;28;20454;-86
2021/06/28 03:38:33;;;;;;;4.83;4.53;;;18.80;99.90;;;;;;4956333;28;20476;-86
2021/06/28 03:41:01;;;;;;;4.90;4.50;;;18.80;99.90;;;;;;4958408;28;20552;-86
2021/06/28 03:43:26;;;;;;;6.00;4.00;;;18.90;99.90;;;;;;4975627;28;20190;-86
2021/06/28 03:45:56;;;;;;;4.70;4.30;;;18.90;99.90;;;;;;4952963;28;20457;-86
2021/06/28 03:48:25;;;;;;;4.60;4.30;;;18.90;99.90;;;;;;4954632;28;20673;-86
2021/06/28 03:50:53;;;;;;;5.10;4.80;;;18.80;99.90;;;;;;4951816;28;20458;-86
2021/06/28 03:53:19;;;;;;;4.30;4.00;;;18.70;99.90;;;;;;4952999;28;20449;-86
2021/06/28 03:55:46;;;;;;;4.70;4.40;;;18.60;99.90;;;;;;4938458;28;20477;-87
2021/06/28 03:58:12;;;;;;;4.83;4.43;;;18.60;99.90;;;;;;4940617;28;20450;-87
2021/06/28 04:00:38;;;;;;;4.90;4.60;;;18.60;99.90;;;;;;4952692;28;20441;-86
2021/06/28 04:03:06;;;;;;;4.97;4.67;;;18.60;99.90;;;;;;4954746;28;20194;-86
2021/06/28 04:05:32;;;;;;;4.67;4.20;;;18.40;99.90;;;;;;4969788;28;20453;-87
2021/06/28 04:07:57;;;;;;;4.37;4.03;;;18.40;99.90;;;;;;4947699;28;20443;-86
2021/06/28 04:10:24;;;;;;;4.80;4.40;;;18.40;99.90;;;;;;4951050;28;20472;-86
2021/06/28 04:12:52;;;;;;;4.07;3.80;;;18.60;99.90;;;;;;4952770;28;21914;-86
2021/06/28 04:15:19;;;;;;;5.53;4.60;;;18.70;99.90;;;;;;4955180;28;20512;-86
2021/06/28 04:17:51;;;;;;;5.30;4.83;;;18.70;99.90;;;;;;4953140;28;21611;-87
2021/06/28 04:20:20;;;;;;;5.07;4.77;;;18.70;99.90;;;;;;4950042;28;20994;-87
2021/06/28 04:22:46;;;;;;;4.40;4.10;;;18.80;99.90;;;;;;4956369;28;20488;-87
2021/06/28 04:25:14;;;;;;;5.17;4.67;;;18.90;99.90;;;;;;4953532;28;20446;-87
2021/06/28 04:27:40;;;;;;;4.87;4.57;;;18.80;99.90;;;;;;4955448;28;20799;-86
2021/06/28 04:30:09;;;;;;;6.40;5.07;;;18.70;99.90;;;;;;4951583;28;20477;-87
2021/06/28 04:32:35;;;;;;;5.40;5.00;;;18.70;99.90;;;;;;4955347;28;20202;-86
2021/06/28 04:35:03;;;;;;;5.60;5.10;;;18.60;99.90;;;;;;4953652;28;20478;-87
2021/06/28 04:37:29;;;;;;;6.67;5.17;;;18.60;99.90;;;;;;4969032;28;20822;-86
2021/06/28 04:39:55;;;;;;;5.70;5.23;;;18.70;99.90;;;;;;4948477;28;20446;-87
2021/06/28 04:42:20;;;;;;;5.63;5.23;;;18.70;99.90;;;;;;4952070;28;20205;-91
2021/06/28 04:44:46;;;;;;;5.30;4.90;;;18.70;99.90;;;;;;4953288;28;20206;-89
2021/06/28 04:47:12;;;;;;;5.30;4.90;;;18.80;99.90;;;;;;4955887;28;21146;-92
2021/06/28 04:49:37;;;;;;;5.40;4.90;;;18.80;99.90;;;;;;4954663;28;20197;-92
2021/06/28 04:52:03;;;;;;;5.97;4.77;;;18.90;99.90;;;;;;4973654;28;20193;-91
2021/06/28 04:54:29;;;;;;;5.03;4.73;;;18.90;99.90;;;;;;4959247;28;20233;-92
2021/06/28 04:56:55;;;;;;;4.90;4.50;;;18.80;99.90;;;;;;4960078;28;20182;-91
2021/06/28 04:59:20;;;;;;;5.60;5.00;;;18.90;99.90;;;;;;4957835;28;20194;-91
2021/06/28 05:01:46;;;;;;;5.80;4.80;;;18.90;99.90;;;;;;4956970;28;20212;-92
2021/06/28 05:04:12;;;;;;;6.93;5.57;;;19.00;99.90;;;;;;4955323;28;20261;-91
2021/06/28 05:06:37;;;;;;;5.27;4.87;;;19.10;99.90;;;;;;4973453;28;20206;-93
2021/06/28 05:09:03;;;;;;;4.90;4.50;;;19.20;99.90;;;;;;4953833;28;20192;-91
2021/06/28 05:11:29;;;;;;;4.90;4.50;;;19.30;99.90;;;;;;4958567;28;20201;-92
2021/06/28 05:13:55;;;;;;;5.17;4.70;;;19.50;99.90;;;;;;4958955;28;20480;-92
2021/06/28 05:16:20;;;;;;;5.13;4.77;;;19.60;99.90;;;;;;4955420;28;20194;-92
2021/06/28 05:18:48;;;;;;;5.30;4.60;;;19.70;99.90;;;;;;4977470;28;20189;-92
2021/06/28 05:21:25;;;;;;;6.90;6.30;;;19.80;99.90;;;;;;4959777;28;20238;-93
2021/06/28 05:23:51;;;;;;;5.20;4.80;;;19.90;99.90;;;;;;4962643;28;20445;-92
2021/06/28 05:26:16;;;;;;;5.63;5.23;;;19.80;99.90;;;;;;4960413;28;20821;-93
2021/06/28 05:28:42;;;;;;;6.33;5.73;;;19.70;99.90;;;;;;4963455;28;20353;-93
2021/06/28 05:31:08;;;;;;;5.90;5.40;;;19.60;99.90;;;;;;4955257;28;20186;-92
2021/06/28 05:33:34;;;;;;;5.83;5.43;;;19.60;99.90;;;;;;4959454;28;20802;-94
2021/06/28 05:35:59;;;;;;;5.00;4.60;;;19.50;99.90;;;;;;4958858;28;20220;-93
2021/06/28 05:38:34;;;;;;;6.70;5.40;;;19.50;99.90;;;;;;4975510;28;20183;-93
2021/06/28 05:41:00;;;;;;;5.40;4.30;;;19.50;99.90;;;;;;4960612;28;22859;-94
2021/06/28 05:43:26;;;;;;;5.67;4.83;;;19.60;99.90;;;;;;4960513;28;20454;-94
2021/06/28 05:45:52;;;;;;;5.93;4.70;;;19.70;99.90;;;;;;4960332;28;20198;-94
2021/06/28 05:48:20;;;;;;;4.80;4.50;;;19.80;99.90;;;;;;4966981;28;20655;-93
2021/06/28 05:50:46;;;;;;;5.30;4.87;;;19.80;99.90;;;;;;4958891;28;20253;-94
2021/06/28 05:53:14;;;;;;;4.27;3.97;;;19.90;99.90;;;;;;4960529;28;20450;-94
2021/06/28 05:55:42;;;;;;;5.10;4.70;;;19.60;99.90;;;;;;4978639;28;20521;-94
2021/06/28 05:58:08;;;;;;;5.37;4.83;;;19.60;99.90;;;;;;4963197;28;20835;-94
2021/06/28 06:00:34;;;;;;;5.80;4.50;;;19.80;99.90;;;;;;4980779;28;20449;-94
2021/06/28 06:03:00;;;;;;;4.93;4.63;;;19.80;99.90;;;;;;4959758;28;20201;-94
2021/06/28 06:05:27;;;;;;;7.20;4.70;;;20.00;99.90;;;;;;4976486;28;20433;-92
2021/06/28 06:07:57;;;;;;;4.57;4.17;;;20.10;99.90;;;;;;4958054;28;20189;-91
2021/06/28 06:10:23;;;;;;;5.23;4.30;;;20.20;99.90;;;;;;4967743;28;20453;-93
2021/06/28 06:12:49;;;;;;;4.97;4.67;;;20.20;99.90;;;;;;4977409;28;20441;-93
2021/06/28 06:15:17;;;;;;;4.23;3.90;;;20.30;99.90;;;;;;4959574;28;20226;-93
2021/06/28 06:17:46;;;;;;;4.93;4.53;;;20.30;99.90;;;;;;4966597;28;20214;-93
2021/06/28 06:20:14;;;;;;;5.30;4.87;;;20.40;99.90;;;;;;4973948;28;20480;-94
2021/06/28 06:23:03;;;;;;;4.80;4.30;;;20.40;99.90;;;;;;4975567;28;20509;-93
2021/06/28 06:25:31;;;;;;;4.23;4.03;;;20.30;99.90;;;;;;4971971;28;20472;-92
2021/06/28 06:28:01;;;;;;;4.70;3.83;;;20.30;99.90;;;;;;4977562;28;20982;-93
2021/06/28 06:30:27;;;;;;;4.30;3.90;;;20.50;99.90;;;;;;4972942;28;20542;-93
2021/06/28 06:33:06;;;;;;;;;;;;;;;;;;;;;
2021/06/28 06:35:38;;;;;;;4.07;3.80;;;20.60;99.90;;;;;;4963185;28;20224;-93
2021/06/28 06:38:53;;;;;;;3.80;3.47;;;20.70;99.90;;;;;;4977520;28;20541;-94
2021/06/28 06:41:42;;;;;;;;;;;;;;;;;;;;;
2021/06/28 06:44:17;;;;;;;5.60;4.50;;;21.10;99.90;;;;;;4950208;28;21499;-94
2021/06/28 06:47:26;;;;;;;3.90;3.60;;;21.20;99.90;;;;;;4977617;28;21286;-94
2021/06/28 06:49:58;;;;;;;3.87;3.67;;;21.50;99.90;;;;;;4965476;28;20451;-94
2021/06/28 06:52:26;;;;;;;4.83;4.47;;;21.20;99.90;;;;;;4977390;28;20450;-94
2021/06/28 06:54:54;;;;;;;4.30;3.93;;;21.10;99.90;;;;;;4977646;28;20473;-94
2021/06/28 06:57:25;;;;;;;4.83;3.87;;;21.10;99.90;;;;;;4963019;28;20476;-94
2021/06/28 07:00:03;;;;;;;4.80;4.40;;;21.20;99.90;;;;;;4965375;28;20457;-94
2021/06/28 07:12:58;;;;;;;4.20;4.00;;;22.20;99.90;;;;;;4950271;28;20446;-90
2021/06/28 07:15:24;;;;;;;4.57;4.20;;;22.40;99.90;;;;;;4955056;28;20509;-90
2021/06/28 07:17:51;;;;;;;3.73;3.50;;;22.50;99.90;;;;;;4958985;28;20210;-89
2021/06/28 07:20:22;;;;;;;4.33;3.83;;;22.50;99.90;;;;;;4975370;28;20304;-90
2021/06/28 07:22:48;;;;;;;3.90;3.50;;;22.60;99.90;;;;;;4972846;28;20472;-90
2021/06/28 07:25:14;;;;;;;4.13;3.73;;;22.70;99.90;;;;;;4971714;28;20504;-93
2021/06/28 07:27:41;;;;;;;4.60;4.20;;;22.80;99.90;;;;;;4960163;28;20544;-90
2021/06/28 07:30:10;;;;;;;3.93;3.63;;;22.80;99.90;;;;;;4959431;28;20904;-90
2021/06/28 07:32:36;;;;;;;3.97;3.20;;;22.90;99.90;;;;;;4970454;28;20453;-88
2021/06/28 07:35:07;;;;;;;5.03;3.90;;;23.10;99.90;;;;;;4966257;28;20481;-89
2021/06/28 07:37:33;;;;;;;4.03;3.73;;;23.20;99.90;;;;;;4974789;28;20516;-91
2021/06/28 07:40:40;;;;;;;3.83;3.53;;;23.30;99.90;;;;;;4954821;28;20977;-93
2021/06/28 07:43:08;;;;;;;4.30;4.00;;;23.50;99.90;;;;;;4956027;28;20198;-91
2021/06/28 07:45:50;;;;;;;5.00;4.47;;;23.60;99.90;;;;;;4950485;28;20483;-92
2021/06/28 07:48:20;;;;;;;4.30;4.00;;;23.60;99.90;;;;;;4954933;28;20441;-92
2021/06/28 07:50:47;;;;;;;4.37;3.97;;;23.50;99.90;;;;;;4956956;28;20457;-92
2021/06/28 07:53:16;;;;;;;4.10;3.80;;;23.50;99.90;;;;;;4955603;28;21156;-92
2021/06/28 07:55:45;;;;;;;4.50;3.77;;;23.60;99.90;;;;;;4941725;28;20477;-91
2021/06/28 07:58:14;;;;;;;4.50;4.10;;;23.80;99.90;;;;;;4956978;28;20530;-92
2021/06/28 08:00:40;;;;;;;3.83;3.53;;;23.90;99.90;;;;;;4973678;28;20494;-91
2021/06/28 08:03:07;;;;;;;3.87;3.53;;;23.90;99.90;;;;;;4956025;28;20458;-91
2021/06/28 08:05:42;;;;;;;3.83;3.53;;;24.10;99.90;;;;;;4969848;28;20476;-92
2021/06/28 08:08:11;;;;;;;4.27;3.90;;;24.30;99.90;;;;;;4959814;28;20512;-91
2021/06/28 08:10:38;;;;;;;3.53;3.33;;;24.40;99.90;;;;;;4974801;28;20483;-92
2021/06/28 08:13:07;;;;;;;4.10;3.80;;;24.60;99.90;;;;;;4953047;28;20495;-91
2021/06/28 08:15:33;;;;;;;4.00;3.70;;;24.70;99.90;;;;;;4963286;28;20531;-91
2021/06/28 08:17:58;;;;;;;4.00;3.70;;;24.90;99.90;;;;;;4971590;28;20457;-92
2021/06/28 08:20:24;;;;;;;7.70;3.77;;;25.10;99.90;;;;;;4958985;28;20187;-92
2021/06/28 08:22:51;;;;;;;3.50;3.30;;;25.30;99.90;;;;;;4974893;28;20205;-91
2021/06/28 08:25:25;;;;;;;4.03;3.60;;;25.20;99.90;;;;;;4956709;28;20206;-92
2021/06/28 08:27:51;;;;;;;3.50;3.30;;;25.40;99.90;;;;;;4957027;28;20448;-91
2021/06/28 08:30:38;;;;;;;7.13;3.40;;;25.50;99.90;;;;;;4955924;28;20461;-93
2021/06/28 08:33:08;;;;;;;3.50;3.30;;;25.70;99.90;;;;;;4958288;28;20190;-92
2021/06/28 08:35:48;;;;;;;3.33;3.13;;;26.00;99.90;;;;;;4959307;28;20491;-92
2021/06/28 08:38:29;;;;;;;3.60;3.40;;;25.80;99.90;;;;;;4939373;28;20552;-93
2021/06/28 08:40:56;;;;;;;3.90;3.70;;;26.00;99.90;;;;;;4952357;28;20776;-93
2021/06/28 08:43:22;;;;;;;3.40;3.20;;;26.00;99.90;;;;;;4971810;28;20474;-94
2021/06/28 08:45:48;;;;;;;3.53;3.33;;;25.80;99.90;;;;;;4953962;28;20769;-92
2021/06/28 08:48:16;;;;;;;4.23;3.73;;;26.00;99.90;;;;;;4955484;28;20954;-93
2021/06/28 08:50:42;;;;;;;11.80;4.23;;;26.00;99.90;;;;;;4957687;28;20205;-93
2021/06/28 08:53:09;;;;;;;4.27;3.87;;;26.10;99.90;;;;;;4963978;28;20962;-93
2021/06/28 08:55:38;;;;;;;3.63;3.43;;;26.40;99.90;;;;;;4958971;28;20379;-93
2021/06/28 08:58:10;;;;;;;3.47;3.27;;;26.40;99.90;;;;;;4975606;28;20669;-93
2021/06/28 09:00:38;;;;;;;11.50;4.13;;;26.60;99.90;;;;;;4976366;28;20465;-93
2021/06/28 09:03:09;;;;;;;3.40;3.20;;;26.60;99.90;;;;;;4962527;28;20477;-93
2021/06/28 09:06:06;;;;;;;4.17;3.87;;;26.90;99.90;;;;;;4976943;28;20457;-93
2021/06/28 09:08:34;;;;;;;3.77;3.47;;;26.90;99.90;;;;;;4972620;28;20453;-94
2021/06/28 09:11:02;;;;;;;3.27;3.00;;;26.90;99.90;;;;;;4978991;28;20445;-93
2021/06/28 09:13:42;;;;;;;3.77;3.47;;;26.90;98.50;;;;;;4962214;28;20449;-93
2021/06/28 09:16:20;;;;;;;3.90;3.60;;;27.10;99.90;;;;;;4955494;28;20559;-93
2021/06/28 09:19:15;;;;;;;3.83;3.30;;;27.30;99.90;;;;;;4957361;28;20527;-94
2021/06/28 09:21:45;;;;;;;3.60;3.40;;;27.10;99.10;;;;;;4977251;28;20456;-93
2021/06/28 09:24:25;;;;;;;3.70;3.40;;;27.10;99.20;;;;;;4956598;28;20506;-93
2021/06/28 09:26:56;;;;;;;3.60;3.40;;;26.90;99.00;;;;;;4974787;28;20787;-93
2021/06/28 09:29:34;;;;;;;4.13;3.83;;;27.00;98.80;;;;;;4973232;28;20536;-92
2021/06/28 09:32:17;;;;;;;4.60;3.83;;;27.00;98.60;;;;;;4956122;28;20457;-92
2021/06/28 09:34:45;;;;;;;3.70;3.40;;;27.00;99.00;;;;;;4973642;28;20508;-94
2021/06/28 09:37:20;;;;;;;4.00;3.80;;;27.40;98.30;;;;;;4979880;28;20888;-92
2021/06/28 09:39:48;;;;;;;3.93;3.53;;;26.80;96.30;;;;;;4968089;28;20493;-92
2021/06/28 09:42:28;;;;;;;3.70;3.50;;;26.70;96.10;;;;;;4954761;28;20441;-92
2021/06/28 09:45:08;;;;;;;3.87;3.67;;;26.80;98.30;;;;;;4958820;28;20453;-91
2021/06/28 09:47:34;;;;;;;3.80;3.50;;;27.20;97.70;;;;;;4971946;28;20460;-91
2021/06/28 09:50:14;;;;;;;4.10;3.90;;;27.40;95.70;;;;;;4957806;28;20445;-90
2021/06/28 09:52:55;;;;;;;3.50;3.30;;;27.20;95.90;;;;;;4971925;28;20487;-91
2021/06/28 09:55:37;;;;;;;3.80;3.50;;;27.10;96.80;;;;;;4974568;28;20573;-93
2021/06/28 09:58:24;;;;;;;4.00;3.70;;;27.30;96.00;;;;;;4971587;28;20504;-91
2021/06/28 10:00:54;;;;;;;3.43;3.23;;;27.50;95.50;;;;;;4972984;28;20813;-91
2021/06/28 10:03:40;;;;;;;3.23;3.03;;;27.10;95.90;;;;;;4975631;28;20461;-92
2021/06/28 10:08:51;;;;;;;3.87;3.57;;;27.70;95.90;;;;;;4958039;28;21028;-92
2021/06/28 10:11:24;;;;;;;4.10;3.80;;;27.70;94.80;;;;;;4974793;28;20452;-93
2021/06/28 10:14:16;;;;;;;3.73;3.43;;;27.90;97.60;;;;;;4971254;28;20470;-94
2021/06/28 10:16:42;;;;;;;4.33;3.93;;;27.90;96.20;;;;;;4969572;28;20468;-91
2021/06/28 10:19:10;;;;;;;3.57;3.37;;;27.70;94.30;;;;;;4974978;28;20903;-92
2021/06/28 10:21:37;;;;;;;3.60;3.30;;;27.60;94.30;;;;;;4957480;28;20222;-92
2021/06/28 10:24:05;;;;;;;4.73;3.40;;;27.90;94.60;;;;;;4956924;28;20441;-92
2021/06/28 10:26:30;;;;;;;3.40;3.20;;;27.90;95.80;;;;;;4958195;28;20458;-91
2021/06/28 10:28:57;;;;;;;3.73;3.50;;;28.10;95.60;;;;;;4954483;28;20438;-91
2021/06/28 10:31:23;;;;;;;3.73;3.47;;;28.60;96.00;;;;;;4956395;28;20209;-91
2021/06/28 10:33:57;;;;;;;4.13;3.83;;;28.50;93.70;;;;;;4954143;28;20474;-91
2021/06/28 10:36:31;;;;;;;4.10;3.40;;;28.20;94.40;;;;;;4958160;28;20605;-91
2021/06/28 10:38:57;;;;;;;4.20;3.60;;;28.40;94.60;;;;;;4954709;28;20449;-91
2021/06/28 10:41:49;;;;;;;3.50;3.30;;;28.90;94.90;;;;;;4956620;28;20987;-91
2021/06/28 10:44:16;;;;;;;3.97;3.77;;;29.00;92.60;;;;;;4959803;28;20449;-92
2021/06/28 10:46:44;;;;;;;3.20;3.10;;;29.20;93.60;;;;;;4957472;28;20441;-92
2021/06/28 10:49:11;;;;;;;4.33;3.70;;;29.00;94.20;;;;;;4956215;28;21178;-91
2021/06/28 10:51:50;;;;;;;4.10;3.80;;;29.10;95.10;;;;;;4959280;28;20965;-92
2021/06/28 10:54:31;;;;;;;4.43;4.13;;;29.20;94.50;;;;;;4971287;28;20594;-92
2021/06/28 10:56:58;;;;;;;4.23;3.93;;;29.30;95.40;;;;;;4974595;28;20449;-91
2021/06/28 10:59:26;;;;;;;4.23;3.93;;;29.60;95.80;;;;;;4957688;28;20469;-91
2021/06/28 11:02:02;;;;;;;4.60;4.30;;;29.50;93.00;;;;;;4958798;28;20574;-91
2021/06/28 11:04:29;;;;;;;4.07;3.77;;;29.80;93.10;;;;;;4971359;28;20532;-92
2021/06/28 11:07:16;;;;;;;4.40;4.10;;;30.20;93.90;;;;;;4956031;28;20449;-90
2021/06/28 11:09:52;;;;;;;4.10;3.70;;;30.10;94.20;;;;;;4954582;28;20584;-91
2021/06/28 11:12:17;;;;;;;4.17;3.97;;;30.20;95.00;;;;;;4970814;28;20460;-90
2021/06/28 11:14:46;;;;;;;4.20;3.80;;;30.40;93.30;;;;;;4954996;28;20829;-90
2021/06/28 11:17:18;;;;;;;4.00;3.80;;;30.70;93.20;;;;;;4956359;28;20194;-90
2021/06/28 11:19:58;;;;;;;4.40;4.10;;;30.50;91.70;;;;;;4971702;28;20449;-90
2021/06/28 11:22:27;;;;;;;4.20;3.90;;;30.20;91.40;;;;;;4961092;28;20454;-91
2021/06/28 11:25:09;;;;;;;4.27;3.97;;;30.70;93.30;;;;;;4956766;28;20456;-90
2021/06/28 11:27:41;;;;;;;4.80;4.40;;;31.00;91.60;;;;;;4970360;28;20770;-90
2021/06/28 11:30:13;;;;;;;4.20;4.00;;;30.90;92.00;;;;;;4971600;28;20464;-90
2021/06/28 11:32:55;;;;;;;4.50;4.20;;;31.30;92.20;;;;;;4966876;28;20445;-91
2021/06/28 11:35:47;;;;;;;4.23;3.90;;;31.30;92.30;;;;;;4956057;28;22404;-90
2021/06/28 11:38:14;;;;;;;4.47;4.17;;;31.00;91.40;;;;;;4971247;28;21216;-90
2021/06/28 11:40:43;;;;;;;5.20;4.80;;;30.60;90.80;;;;;;4954017;28;20482;-90
2021/06/28 11:43:10;;;;;;;4.50;4.07;;;30.20;93.50;;;;;;4953121;28;20450;-91
2021/06/28 11:45:52;;;;;;;3.83;3.60;;;30.80;92.50;;;;;;4952504;28;20485;-90
2021/06/28 11:48:38;;;;;;;4.20;3.90;;;31.00;90.80;;;;;;4972302;28;20461;-91
2021/06/28 11:51:33;;;;;;;4.10;3.90;;;31.30;92.60;;;;;;4954249;28;20434;-89
2021/06/28 11:54:06;;;;;;;3.57;3.47;;;31.30;90.30;;;;;;4922672;28;20480;-92
2021/06/28 11:56:37;;;;;;;4.23;4.03;;;31.00;91.10;;;;;;4955004;28;20465;-91
2021/06/28 11:59:17;;;;;;;4.93;4.63;;;31.30;91.20;;;;;;4954848;28;20796;-92
2021/06/28 12:01:57;;;;;;;4.73;4.43;;;31.60;91.50;;;;;;4955761;28;20478;-90
2021/06/28 12:04:34;;;;;;;4.27;3.97;;;32.10;90.10;;;;;;4956776;28;20469;-91
2021/06/28 12:07:27;;;;;;;4.40;4.10;;;32.40;89.60;;;;;;4954436;28;20472;-90
2021/06/28 12:10:03;;;;;;;4.00;3.80;;;31.80;89.40;;;;;;4952542;28;20465;-91
2021/06/28 12:12:29;;;;;;;4.43;4.13;;;31.00;91.40;;;;;;4955237;28;20513;-90
2021/06/28 12:14:54;;;;;;;4.40;4.20;;;30.80;90.70;;;;;;4956736;28;20484;-89
2021/06/28 12:17:27;;;;;;;4.20;3.90;;;30.80;92.60;;;;;;4954672;28;20193;-91
2021/06/28 12:20:05;;;;;;;4.80;4.50;;;31.30;90.90;;;;;;4957824;28;20194;-92
2021/06/28 12:22:41;;;;;;;4.40;4.10;;;32.00;90.80;;;;;;4970958;28;20561;-92
2021/06/28 12:25:12;;;;;;;4.03;3.73;;;32.30;89.50;;;;;;4976872;28;20463;-93
2021/06/28 12:27:43;;;;;;;4.30;4.00;;;32.10;90.10;;;;;;4959780;28;20460;-93
2021/06/28 12:30:13;;;;;;;3.90;3.70;;;32.20;89.40;;;;;;4979187;28;20768;-90
2021/06/28 12:32:49;;;;;;;4.47;4.17;;;32.60;86.50;;;;;;4964163;28;20454;-95
2021/06/28 12:35:18;;;;;;;4.43;4.13;;;32.10;83.90;;;;;;4980498;28;20895;-91
2021/06/28 12:38:01;;;;;;;4.50;4.30;;;31.70;85.90;;;;;;4983116;28;20457;-93
2021/06/28 12:40:32;;;;;;;4.13;3.93;;;32.20;90.30;;;;;;4979237;28;20913;-92
2021/06/28 12:43:10;;;;;;;4.77;4.40;;;32.30;89.00;;;;;;4961623;28;20874;-93
2021/06/28 12:45:52;;;;;;;4.53;4.33;;;32.40;87.60;;;;;;4967127;28;20465;-93
2021/06/28 12:48:28;;;;;;;4.23;4.00;;;31.70;86.10;;;;;;4958477;28;20547;-94
2021/06/28 12:50:59;;;;;;;4.60;4.30;;;32.30;90.20;;;;;;4960072;28;20437;-92
2021/06/28 12:53:27;;;;;;;4.43;4.20;;;32.70;88.30;;;;;;4961771;28;20465;-93
2021/06/28 12:56:23;;;;;;;4.20;4.00;;;32.80;84.10;;;;;;4962204;28;20794;-94
2021/06/28 12:58:54;;;;;;;4.77;4.47;;;32.30;86.70;;;;;;4940780;28;20449;-95
2021/06/28 13:01:41;;;;;;;4.10;3.90;;;32.50;85.80;;;;;;4976994;28;20445;-94
2021/06/28 13:04:59;;;;;;;4.07;3.87;;;32.40;83.80;;;;;;4963216;28;20462;-93
2021/06/28 13:07:26;;;;;;;4.10;3.80;;;32.80;82.50;;;;;;4968395;28;20444;-94
2021/06/28 13:09:59;;;;;;;4.40;4.20;;;32.50;79.40;;;;;;4960126;28;20462;-93
2021/06/28 13:12:33;;;;;;;4.50;4.20;;;32.50;82.30;;;;;;4963418;28;20455;-94
2021/06/28 13:15:33;;;;;;;5.00;4.23;;;33.00;82.60;;;;;;4962153;28;20835;-94
2021/06/28 13:18:00;;;;;;;4.43;4.20;;;33.20;78.70;;;;;;4960524;28;20449;-90